Terminal Aerodrome Forecast
Issued by NWS Shreveport, LA

Home | Current Version | Previous Version | Text Only | Print | Product List | Glossary On
Versions: 1 2 3 4 5 6 7 8 9 10 11 12 13 14 15 16 17 18 19 20 21
722
FTUS44 KSHV 251724
TAFELD
TAF
KELD 251724Z 2518/2618 24012G18KT P6SM SCT030
     FM260000 VRB03KT P6SM SKC
      TEMPO 2610/2613 4SM BR
     FM261600 20006KT P6SM SKC=

USA.gov is the U.S. government's official web portal to all federal, state and local government web resources and services.